sensor_id;sensor_type;location;lat;lon;timestamp;pressure;altitude;pressure_sealevel;temperature;humidity
29169;BME280;16219;42.864;23.360;2023-04-20T00:00:37;95505.72;;;9.42;100.00
29169;BME280;16219;42.864;23.360;2023-04-20T00:03:04;95495.34;;;9.37;100.00
29169;BME280;16219;42.864;23.360;2023-04-20T00:05:32;95490.56;;;9.39;100.00
29169;BME280;16219;42.864;23.360;2023-04-20T00:08:00;95498.91;;;9.33;100.00
29169;BME280;16219;42.864;23.360;2023-04-20T00:10:27;95505.22;;;9.14;100.00
29169;BME280;16219;42.864;23.360;2023-04-20T00:12:54;95477.47;;;8.91;100.00
29169;BME280;16219;42.864;23.360;2023-04-20T00:15:21;95499.81;;;9.11;100.00
29169;BME280;16219;42.864;23.360;2023-04-20T00:17:48;95490.06;;;9.11;100.00
29169;BME280;16219;42.864;23.360;2023-04-20T00:20:15;95479.34;;;8.90;100.00
29169;BME280;16219;42.864;23.360;2023-04-20T00:22:43;95492.50;;;8.99;100.00
29169;BME280;16219;42.864;23.360;2023-04-20T00:25:11;95497.13;;;8.93;100.00
29169;BME280;16219;42.864;23.360;2023-04-20T00:27:38;95488.31;;;8.89;100.00
29169;BME280;16219;42.864;23.360;2023-04-20T00:30:06;95479.91;;;8.79;100.00
29169;BME280;16219;42.864;23.360;2023-04-20T00:32:33;95487.22;;;8.90;100.00
29169;BME280;16219;42.864;23.360;2023-04-20T00:35:00;95486.78;;;8.88;100.00
29169;BME280;16219;42.864;23.360;2023-04-20T00:37:27;95485.34;;;8.82;100.00
29169;BME280;16219;42.864;23.360;2023-04-20T00:39:54;95482.72;;;8.82;100.00
29169;BME280;16219;42.864;23.360;2023-04-20T00:42:24;95470.66;;;8.90;100.00
29169;BME280;16219;42.864;23.360;2023-04-20T00:44:52;95483.06;;;9.07;100.00
29169;BME280;16219;42.864;23.360;2023-04-20T00:47:20;95486.31;;;9.04;100.00
29169;BME280;16219;42.864;23.360;2023-04-20T00:49:47;95487.56;;;9.06;100.00
29169;BME280;16219;42.864;23.360;2023-04-20T00:52:15;95483.50;;;8.91;100.00
29169;BME280;16219;42.864;23.360;2023-04-20T00:54:42;95491.09;;;8.84;100.00
29169;BME280;16219;42.864;23.360;2023-04-20T00:57:10;95481.50;;;8.88;100.00
29169;BME280;16219;42.864;23.360;2023-04-20T00:59:40;95479.00;;;8.92;100.00
29169;BME280;16219;42.864;23.360;2023-04-20T01:02:07;95478.88;;;8.88;100.00
29169;BME280;16219;42.864;23.360;2023-04-20T01:04:34;95473.28;;;8.90;100.00
29169;BME280;16219;42.864;23.360;2023-04-20T01:07:02;95471.75;;;8.80;100.00
29169;BME280;16219;42.864;23.360;2023-04-20T01:09:29;95473.88;;;8.78;100.00
29169;BME280;16219;42.864;23.360;2023-04-20T01:11:56;95469.53;;;8.73;100.00
29169;BME280;16219;42.864;23.360;2023-04-20T01:14:23;95454.22;;;8.67;100.00
29169;BME280;16219;42.864;23.360;2023-04-20T01:16:51;95462.94;;;8.93;100.00
29169;BME280;16219;42.864;23.360;2023-04-20T01:19:18;95466.16;;;8.82;100.00
29169;BME280;16219;42.864;23.360;2023-04-20T01:21:46;95464.13;;;8.70;100.00
29169;BME280;16219;42.864;23.360;2023-04-20T01:24:16;95466.13;;;8.64;100.00
29169;BME280;16219;42.864;23.360;2023-04-20T01:26:43;95463.44;;;8.47;100.00
29169;BME280;16219;42.864;23.360;2023-04-20T01:29:10;95466.38;;;8.23;100.00
29169;BME280;16219;42.864;23.360;2023-04-20T01:31:37;95463.72;;;8.14;100.00
29169;BME280;16219;42.864;23.360;2023-04-20T01:34:04;95459.97;;;8.07;100.00
29169;BME280;16219;42.864;23.360;2023-04-20T01:36:31;95459.38;;;8.10;100.00
29169;BME280;16219;42.864;23.360;2023-04-20T01:38:59;95443.88;;;7.99;100.00
29169;BME280;16219;42.864;23.360;2023-04-20T01:41:29;95457.97;;;8.04;100.00
29169;BME280;16219;42.864;23.360;2023-04-20T01:43:56;95456.06;;;7.95;100.00
29169;BME280;16219;42.864;23.360;2023-04-20T01:46:23;95455.72;;;7.88;100.00
29169;BME280;16219;42.864;23.360;2023-04-20T01:48:50;95454.91;;;7.79;100.00
29169;BME280;16219;42.864;23.360;2023-04-20T01:51:17;95447.59;;;7.76;100.00
29169;BME280;16219;42.864;23.360;2023-04-20T01:53:43;95447.97;;;7.83;100.00
29169;BME280;16219;42.864;23.360;2023-04-20T01:56:11;95444.75;;;7.86;100.00
29169;BME280;16219;42.864;23.360;2023-04-20T01:58:39;95451.53;;;7.87;100.00
29169;BME280;16219;42.864;23.360;2023-04-20T02:01:06;95449.63;;;7.79;100.00
29169;BME280;16219;42.864;23.360;2023-04-20T02:03:33;95443.91;;;7.77;100.00
29169;BME280;16219;42.864;23.360;2023-04-20T02:06:00;95452.84;;;7.76;100.00
29169;BME280;16219;42.864;23.360;2023-04-20T02:08:28;95448.94;;;7.65;100.00
29169;BME280;16219;42.864;23.360;2023-04-20T02:10:56;95445.69;;;7.68;100.00
29169;BME280;16219;42.864;23.360;2023-04-20T02:13:23;95446.97;;;7.70;100.00
29169;BME280;16219;42.864;23.360;2023-04-20T02:15:51;95452.34;;;7.65;100.00
29169;BME280;16219;42.864;23.360;2023-04-20T02:18:18;95445.97;;;7.58;100.00
29169;BME280;16219;42.864;23.360;2023-04-20T02:20:46;95435.09;;;7.50;100.00
29169;BME280;16219;42.864;23.360;2023-04-20T02:23:13;95449.03;;;7.60;100.00
29169;BME280;16219;42.864;23.360;2023-04-20T02:25:40;95457.22;;;7.58;100.00
29169;BME280;16219;42.864;23.360;2023-04-20T02:28:09;95451.34;;;7.53;100.00
29169;BME280;16219;42.864;23.360;2023-04-20T02:30:37;95447.88;;;7.43;100.00
29169;BME280;16219;42.864;23.360;2023-04-20T02:33:05;95453.53;;;7.37;100.00
29169;BME280;16219;42.864;23.360;2023-04-20T02:35:33;95455.06;;;7.38;100.00
29169;BME280;16219;42.864;23.360;2023-04-20T02:38:00;95450.31;;;7.40;100.00
29169;BME280;16219;42.864;23.360;2023-04-20T02:40:27;95464.22;;;7.40;100.00
29169;BME280;16219;42.864;23.360;2023-04-20T02:42:54;95463.84;;;7.33;100.00
29169;BME280;16219;42.864;23.360;2023-04-20T02:45:21;95465.50;;;7.29;100.00
29169;BME280;16219;42.864;23.360;2023-04-20T02:47:48;95456.97;;;7.23;100.00
29169;BME280;16219;42.864;23.360;2023-04-20T02:50:17;95466.13;;;7.12;100.00
29169;BME280;16219;42.864;23.360;2023-04-20T02:53:04;95463.31;;;7.09;100.00
29169;BME280;16219;42.864;23.360;2023-04-20T02:55:33;95458.06;;;7.09;100.00
29169;BME280;16219;42.864;23.360;2023-04-20T02:58:07;95457.41;;;7.03;100.00
29169;BME280;16219;42.864;23.360;2023-04-20T03:00:58;95471.94;;;7.23;100.00
29169;BME280;16219;42.864;23.360;2023-04-20T03:03:25;95461.19;;;7.11;100.00
29169;BME280;16219;42.864;23.360;2023-04-20T03:05:54;95467.84;;;7.31;100.00
29169;BME280;16219;42.864;23.360;2023-04-20T03:08:22;95472.13;;;7.26;100.00
29169;BME280;16219;42.864;23.360;2023-04-20T03:10:49;95476.66;;;7.35;100.00
29169;BME280;16219;42.864;23.360;2023-04-20T03:13:18;95452.00;;;7.22;100.00
29169;BME280;16219;42.864;23.360;2023-04-20T03:15:59;95463.84;;;7.33;100.00
29169;BME280;16219;42.864;23.360;2023-04-20T03:18:40;95466.88;;;7.26;100.00
29169;BME280;16219;42.864;23.360;2023-04-20T03:21:09;95470.88;;;7.24;100.00
29169;BME280;16219;42.864;23.360;2023-04-20T03:23:37;95463.06;;;7.33;100.00
29169;BME280;16219;42.864;23.360;2023-04-20T03:26:06;95466.84;;;7.40;100.00
29169;BME280;16219;42.864;23.360;2023-04-20T03:28:46;95467.03;;;7.44;100.00
29169;BME280;16219;42.864;23.360;2023-04-20T03:31:18;95472.09;;;7.63;100.00
29169;BME280;16219;42.864;23.360;2023-04-20T03:33:45;95479.84;;;7.68;100.00
29169;BME280;16219;42.864;23.360;2023-04-20T03:36:14;95474.06;;;7.57;100.00
29169;BME280;16219;42.864;23.360;2023-04-20T03:38:41;95469.47;;;7.63;100.00
29169;BME280;16219;42.864;23.360;2023-04-20T03:41:10;95477.81;;;7.65;100.00
29169;BME280;16219;42.864;23.360;2023-04-20T03:43:37;95463.63;;;7.66;100.00
29169;BME280;16219;42.864;23.360;2023-04-20T03:46:06;95453.13;;;7.66;100.00
29169;BME280;16219;42.864;23.360;2023-04-20T03:48:33;95467.84;;;7.75;100.00
29169;BME280;16219;42.864;23.360;2023-04-20T03:51:00;95472.00;;;7.76;100.00
29169;BME280;16219;42.864;23.360;2023-04-20T03:53:28;95470.78;;;7.74;100.00
29169;BME280;16219;42.864;23.360;2023-04-20T03:55:55;95475.41;;;7.77;100.00
29169;BME280;16219;42.864;23.360;2023-04-20T03:58:24;95475.41;;;7.77;100.00
29169;BME280;16219;42.864;23.360;2023-04-20T04:01:12;95459.38;;;7.79;100.00
29169;BME280;16219;42.864;23.360;2023-04-20T04:03:45;95475.41;;;7.99;100.00
29169;BME280;16219;42.864;23.360;2023-04-20T04:06:12;95475.63;;;8.12;100.00
29169;BME280;16219;42.864;23.360;2023-04-20T04:08:41;95472.88;;;8.17;100.00
29169;BME280;16219;42.864;23.360;2023-04-20T04:11:08;95473.47;;;8.14;100.00
29169;BME280;16219;42.864;23.360;2023-04-20T04:13:35;95479.16;;;8.07;100.00
29169;BME280;16219;42.864;23.360;2023-04-20T04:16:05;95478.03;;;7.99;100.00
29169;BME280;16219;42.864;23.360;2023-04-20T04:18:33;95477.59;;;8.06;100.00
29169;BME280;16219;42.864;23.360;2023-04-20T04:21:05;95476.28;;;8.17;100.00
29169;BME280;16219;42.864;23.360;2023-04-20T04:23:36;95477.84;;;8.27;100.00
29169;BME280;16219;42.864;23.360;2023-04-20T04:26:11;95482.03;;;8.28;100.00
29169;BME280;16219;42.864;23.360;2023-04-20T04:28:42;95487.78;;;8.30;100.00
29169;BME280;16219;42.864;23.360;2023-04-20T04:31:15;95485.59;;;8.32;100.00
29169;BME280;16219;42.864;23.360;2023-04-20T04:33:44;95484.06;;;8.31;100.00
29169;BME280;16219;42.864;23.360;2023-04-20T04:36:16;95474.69;;;8.39;100.00
29169;BME280;16219;42.864;23.360;2023-04-20T04:38:43;95482.81;;;8.29;100.00
29169;BME280;16219;42.864;23.360;2023-04-20T04:41:12;95483.28;;;8.31;100.00
29169;BME280;16219;42.864;23.360;2023-04-20T04:43:41;95484.44;;;8.38;100.00
29169;BME280;16219;42.864;23.360;2023-04-20T04:46:20;95491.44;;;8.51;100.00
29169;BME280;16219;42.864;23.360;2023-04-20T04:48:50;95499.94;;;8.48;100.00
29169;BME280;16219;42.864;23.360;2023-04-20T04:51:17;95497.63;;;8.47;100.00
29169;BME280;16219;42.864;23.360;2023-04-20T04:53:44;95494.22;;;8.46;100.00
29169;BME280;16219;42.864;23.360;2023-04-20T04:56:13;95500.25;;;8.47;100.00
29169;BME280;16219;42.864;23.360;2023-04-20T04:58:40;95490.19;;;8.49;100.00
29169;BME280;16219;42.864;23.360;2023-04-20T05:01:07;95494.53;;;8.54;100.00
29169;BME280;16219;42.864;23.360;2023-04-20T05:03:34;95506.63;;;8.55;100.00
29169;BME280;16219;42.864;23.360;2023-04-20T05:06:01;95496.13;;;8.63;100.00
29169;BME280;16219;42.864;23.360;2023-04-20T05:08:28;95505.72;;;8.68;100.00
29169;BME280;16219;42.864;23.360;2023-04-20T05:10:56;95500.00;;;8.74;100.00
29169;BME280;16219;42.864;23.360;2023-04-20T05:13:24;95506.38;;;8.73;100.00
29169;BME280;16219;42.864;23.360;2023-04-20T05:15:52;95507.59;;;8.67;100.00
29169;BME280;16219;42.864;23.360;2023-04-20T05:18:19;95502.94;;;8.64;100.00
29169;BME280;16219;42.864;23.360;2023-04-20T05:20:46;95510.81;;;8.64;100.00
29169;BME280;16219;42.864;23.360;2023-04-20T05:23:13;95513.03;;;8.71;100.00
29169;BME280;16219;42.864;23.360;2023-04-20T05:25:40;95507.44;;;8.72;100.00
29169;BME280;16219;42.864;23.360;2023-04-20T05:28:08;95505.59;;;8.73;100.00
29169;BME280;16219;42.864;23.360;2023-04-20T05:30:36;95513.47;;;8.73;100.00
29169;BME280;16219;42.864;23.360;2023-04-20T05:33:03;95514.88;;;8.79;100.00
29169;BME280;16219;42.864;23.360;2023-04-20T05:35:30;95514.88;;;8.79;100.00
29169;BME280;16219;42.864;23.360;2023-04-20T05:37:57;95517.94;;;8.64;100.00
29169;BME280;16219;42.864;23.360;2023-04-20T05:40:27;95528.00;;;8.70;100.00
29169;BME280;16219;42.864;23.360;2023-04-20T05:42:54;95523.41;;;8.76;100.00
29169;BME280;16219;42.864;23.360;2023-04-20T05:45:21;95518.31;;;8.80;100.00
29169;BME280;16219;42.864;23.360;2023-04-20T05:47:52;95514.00;;;8.92;100.00
29169;BME280;16219;42.864;23.360;2023-04-20T05:50:20;95513.06;;;8.88;100.00
29169;BME280;16219;42.864;23.360;2023-04-20T05:52:47;95519.28;;;8.92;100.00
29169;BME280;16219;42.864;23.360;2023-04-20T05:55:15;95514.16;;;8.96;100.00
29169;BME280;16219;42.864;23.360;2023-04-20T05:57:42;95516.03;;;9.04;100.00
29169;BME280;16219;42.864;23.360;2023-04-20T06:00:11;95524.09;;;9.08;100.00
29169;BME280;16219;42.864;23.360;2023-04-20T06:02:39;95510.00;;;9.04;100.00
29169;BME280;16219;42.864;23.360;2023-04-20T06:05:09;95523.66;;;9.14;100.00
29169;BME280;16219;42.864;23.360;2023-04-20T06:07:36;95518.56;;;9.18;100.00
29169;BME280;16219;42.864;23.360;2023-04-20T06:10:05;95522.72;;;9.19;100.00
29169;BME280;16219;42.864;23.360;2023-04-20T06:12:33;95525.19;;;9.07;100.00
29169;BME280;16219;42.864;23.360;2023-04-20T06:15:00;95521.41;;;8.90;100.00
29169;BME280;16219;42.864;23.360;2023-04-20T06:17:28;95521.56;;;8.85;100.00
29169;BME280;16219;42.864;23.360;2023-04-20T06:19:55;95520.81;;;8.93;100.00
29169;BME280;16219;42.864;23.360;2023-04-20T06:22:24;95521.75;;;8.97;100.00
29169;BME280;16219;42.864;23.360;2023-04-20T06:24:51;95522.56;;;9.07;100.00
29169;BME280;16219;42.864;23.360;2023-04-20T06:27:18;95520.69;;;9.07;100.00
29169;BME280;16219;42.864;23.360;2023-04-20T06:29:45;95507.06;;;8.96;100.00
29169;BME280;16219;42.864;23.360;2023-04-20T06:32:12;95523.94;;;9.04;100.00
29169;BME280;16219;42.864;23.360;2023-04-20T06:34:39;95521.00;;;8.97;100.00
29169;BME280;16219;42.864;23.360;2023-04-20T06:37:06;95519.31;;;9.10;100.00
29169;BME280;16219;42.864;23.360;2023-04-20T06:39:35;95515.59;;;9.19;100.00
29169;BME280;16219;42.864;23.360;2023-04-20T06:42:02;95521.31;;;9.13;100.00
29169;BME280;16219;42.864;23.360;2023-04-20T06:44:29;95511.72;;;9.08;100.00
29169;BME280;16219;42.864;23.360;2023-04-20T06:46:56;95519.03;;;9.29;100.00
29169;BME280;16219;42.864;23.360;2023-04-20T06:49:23;95523.38;;;9.50;100.00
29169;BME280;16219;42.864;23.360;2023-04-20T06:51:51;95522.94;;;9.57;100.00
29169;BME280;16219;42.864;23.360;2023-04-20T06:54:18;95528.63;;;9.76;100.00
29169;BME280;16219;42.864;23.360;2023-04-20T06:56:46;95528.63;;;9.85;100.00
29169;BME280;16219;42.864;23.360;2023-04-20T06:59:14;95533.13;;;9.85;100.00
29169;BME280;16219;42.864;23.360;2023-04-20T07:01:43;95537.63;;;9.93;100.00
29169;BME280;16219;42.864;23.360;2023-04-20T07:04:10;95532.50;;;9.96;100.00
29169;BME280;16219;42.864;23.360;2023-04-20T07:06:37;95534.53;;;9.99;100.00
29169;BME280;16219;42.864;23.360;2023-04-20T07:09:04;95515.00;;;10.00;100.00
29169;BME280;16219;42.864;23.360;2023-04-20T07:11:33;95538.69;;;10.26;100.00
29169;BME280;16219;42.864;23.360;2023-04-20T07:14:01;95529.50;;;10.41;100.00
29169;BME280;16219;42.864;23.360;2023-04-20T07:16:28;95527.91;;;10.58;100.00
29169;BME280;16219;42.864;23.360;2023-04-20T07:18:55;95531.06;;;10.81;100.00
29169;BME280;16219;42.864;23.360;2023-04-20T07:21:22;95534.47;;;10.81;100.00
29169;BME280;16219;42.864;23.360;2023-04-20T07:23:49;95537.69;;;10.87;100.00
29169;BME280;16219;42.864;23.360;2023-04-20T07:26:18;95527.28;;;11.20;100.00
29169;BME280;16219;42.864;23.360;2023-04-20T07:28:45;95529.56;;;11.51;100.00
29169;BME280;16219;42.864;23.360;2023-04-20T07:31:13;95525.13;;;11.64;100.00
29169;BME280;16219;42.864;23.360;2023-04-20T07:33:41;95530.94;;;11.78;100.00
29169;BME280;16219;42.864;23.360;2023-04-20T07:36:08;95525.69;;;12.11;100.00
29169;BME280;16219;42.864;23.360;2023-04-20T07:38:36;95526.31;;;12.41;100.00
29169;BME280;16219;42.864;23.360;2023-04-20T07:41:03;95527.84;;;12.42;100.00
29169;BME280;16219;42.864;23.360;2023-04-20T07:43:30;95527.84;;;12.42;100.00
29169;BME280;16219;42.864;23.360;2023-04-20T07:45:57;95523.56;;;12.50;100.00
29169;BME280;16219;42.864;23.360;2023-04-20T07:48:26;95526.78;;;12.56;100.00
29169;BME280;16219;42.864;23.360;2023-04-20T07:50:53;95522.50;;;12.63;100.00
29169;BME280;16219;42.864;23.360;2023-04-20T07:53:20;95526.34;;;12.54;100.00
29169;BME280;16219;42.864;23.360;2023-04-20T07:55:48;95534.34;;;12.33;100.00
29169;BME280;16219;42.864;23.360;2023-04-20T07:58:15;95528.72;;;12.34;100.00
29169;BME280;16219;42.864;23.360;2023-04-20T08:00:44;95529.28;;;12.40;100.00
29169;BME280;16219;42.864;23.360;2023-04-20T08:03:11;95525.44;;;12.37;100.00
29169;BME280;16219;42.864;23.360;2023-04-20T08:05:40;95522.25;;;12.56;100.00
29169;BME280;16219;42.864;23.360;2023-04-20T08:08:07;95517.97;;;12.64;100.00
29169;BME280;16219;42.864;23.360;2023-04-20T08:10:34;95527.81;;;12.75;100.00
29169;BME280;16219;42.864;23.360;2023-04-20T08:13:02;95527.34;;;12.73;100.00
29169;BME280;16219;42.864;23.360;2023-04-20T08:15:29;95517.06;;;12.60;100.00
29169;BME280;16219;42.864;23.360;2023-04-20T08:17:56;95518.72;;;12.64;100.00
29169;BME280;16219;42.864;23.360;2023-04-20T08:20:23;95524.59;;;12.58;100.00
29169;BME280;16219;42.864;23.360;2023-04-20T08:22:52;95527.91;;;12.67;100.00
29169;BME280;16219;42.864;23.360;2023-04-20T08:25:19;95521.47;;;12.56;100.00
29169;BME280;16219;42.864;23.360;2023-04-20T08:27:46;95525.84;;;12.39;100.00
29169;BME280;16219;42.864;23.360;2023-04-20T08:30:13;95524.94;;;12.23;100.00
29169;BME280;16219;42.864;23.360;2023-04-20T08:32:40;95522.91;;;12.08;100.00
29169;BME280;16219;42.864;23.360;2023-04-20T08:35:07;95523.16;;;12.15;100.00
29169;BME280;16219;42.864;23.360;2023-04-20T08:37:34;95515.72;;;12.29;100.00
29169;BME280;16219;42.864;23.360;2023-04-20T08:40:03;95514.19;;;12.40;100.00
29169;BME280;16219;42.864;23.360;2023-04-20T08:42:31;95511.91;;;12.63;100.00
29169;BME280;16219;42.864;23.360;2023-04-20T08:44:58;95509.28;;;12.88;100.00
29169;BME280;16219;42.864;23.360;2023-04-20T08:47:26;95503.63;;;12.89;100.00
29169;BME280;16219;42.864;23.360;2023-04-20T08:49:54;95506.28;;;13.01;100.00
29169;BME280;16219;42.864;23.360;2023-04-20T08:52:22;95508.03;;;13.10;100.00
29169;BME280;16219;42.864;23.360;2023-04-20T08:54:49;95516.66;;;13.07;100.00
29169;BME280;16219;42.864;23.360;2023-04-20T08:57:18;95507.59;;;13.20;100.00
29169;BME280;16219;42.864;23.360;2023-04-20T08:59:45;95511.25;;;13.28;100.00
29169;BME280;16219;42.864;23.360;2023-04-20T09:02:12;95508.06;;;13.34;100.00
29169;BME280;16219;42.864;23.360;2023-04-20T09:04:40;95510.91;;;13.29;100.00
29169;BME280;16219;42.864;23.360;2023-04-20T09:07:16;95509.81;;;13.30;100.00
29169;BME280;16219;42.864;23.360;2023-04-20T09:09:53;95515.66;;;13.36;100.00
29169;BME280;16219;42.864;23.360;2023-04-20T09:12:22;95511.53;;;13.50;100.00
29169;BME280;16219;42.864;23.360;2023-04-20T09:14:51;95512.38;;;13.67;100.00
29169;BME280;16219;42.864;23.360;2023-04-20T09:17:30;95514.94;;;13.91;100.00
29169;BME280;16219;42.864;23.360;2023-04-20T09:19:57;95509.13;;;14.01;100.00
29169;BME280;16219;42.864;23.360;2023-04-20T09:22:31;95505.88;;;13.92;100.00
29169;BME280;16219;42.864;23.360;2023-04-20T09:24:59;95506.84;;;14.00;100.00
29169;BME280;16219;42.864;23.360;2023-04-20T09:27:28;95501.13;;;14.14;100.00
29169;BME280;16219;42.864;23.360;2023-04-20T09:29:56;95508.34;;;14.29;100.00
29169;BME280;16219;42.864;23.360;2023-04-20T09:32:25;95505.22;;;14.55;100.00
29169;BME280;16219;42.864;23.360;2023-04-20T09:34:55;95493.59;;;14.75;100.00
29169;BME280;16219;42.864;23.360;2023-04-20T09:37:22;95502.81;;;14.82;100.00
29169;BME280;16219;42.864;23.360;2023-04-20T09:39:58;95487.47;;;14.91;100.00
29169;BME280;16219;42.864;23.360;2023-04-20T09:42:28;95494.47;;;15.15;100.00
29169;BME280;16219;42.864;23.360;2023-04-20T09:44:59;95485.47;;;15.19;100.00
29169;BME280;16219;42.864;23.360;2023-04-20T09:47:27;95490.94;;;15.27;100.00
29169;BME280;16219;42.864;23.360;2023-04-20T09:49:55;95497.06;;;15.11;100.00
29169;BME280;16219;42.864;23.360;2023-04-20T09:52:34;95496.56;;;15.06;100.00
29169;BME280;16219;42.864;23.360;2023-04-20T09:55:04;95474.50;;;15.21;100.00
29169;BME280;16219;42.864;23.360;2023-04-20T09:57:33;95489.13;;;15.31;100.00
29169;BME280;16219;42.864;23.360;2023-04-20T10:00:01;95486.09;;;15.13;100.00
29169;BME280;16219;42.864;23.360;2023-04-20T10:02:31;95485.75;;;14.98;100.00
29169;BME280;16219;42.864;23.360;2023-04-20T10:05:00;95481.00;;;14.57;100.00
29169;BME280;16219;42.864;23.360;2023-04-20T10:07:29;95475.38;;;14.30;100.00
29169;BME280;16219;42.864;23.360;2023-04-20T10:10:06;95472.44;;;14.04;100.00
29169;BME280;16219;42.864;23.360;2023-04-20T10:12:46;95452.03;;;14.20;100.00
29169;BME280;16219;42.864;23.360;2023-04-20T10:15:13;95462.22;;;14.65;100.00
29169;BME280;16219;42.864;23.360;2023-04-20T10:17:41;95461.63;;;14.88;100.00
29169;BME280;16219;42.864;23.360;2023-04-20T10:20:18;95455.56;;;15.07;100.00
29169;BME280;16219;42.864;23.360;2023-04-20T10:22:45;95459.44;;;15.09;100.00
29169;BME280;16219;42.864;23.360;2023-04-20T10:25:14;95457.44;;;15.22;100.00
29169;BME280;16219;42.864;23.360;2023-04-20T10:27:56;95447.25;;;15.43;100.00
29169;BME280;16219;42.864;23.360;2023-04-20T10:30:24;95451.16;;;15.88;98.99
29169;BME280;16219;42.864;23.360;2023-04-20T10:33:02;95437.78;;;16.04;100.00
29169;BME280;16219;42.864;23.360;2023-04-20T10:35:40;95437.59;;;15.74;99.21
29169;BME280;16219;42.864;23.360;2023-04-20T10:38:07;95437.91;;;15.69;96.19
29169;BME280;16219;42.864;23.360;2023-04-20T10:40:36;95442.94;;;15.74;94.37
29169;BME280;16219;42.864;23.360;2023-04-20T10:43:16;95443.97;;;15.89;98.88
29169;BME280;16219;42.864;23.360;2023-04-20T10:45:44;95447.66;;;16.04;100.00
29169;BME280;16219;42.864;23.360;2023-04-20T10:48:11;95433.50;;;15.99;97.87
29169;BME280;16219;42.864;23.360;2023-04-20T10:50:38;95447.66;;;15.84;100.00
29169;BME280;16219;42.864;23.360;2023-04-20T10:53:16;95446.28;;;15.71;94.46
29169;BME280;16219;42.864;23.360;2023-04-20T10:55:46;95447.19;;;15.59;95.74
29169;BME280;16219;42.864;23.360;2023-04-20T10:58:24;95443.91;;;15.66;97.89
29169;BME280;16219;42.864;23.360;2023-04-20T11:00:58;95431.94;;;15.75;100.00
29169;BME280;16219;42.864;23.360;2023-04-20T11:03:27;95440.53;;;15.88;94.78
29169;BME280;16219;42.864;23.360;2023-04-20T11:05:55;95425.16;;;15.78;90.54
29169;BME280;16219;42.864;23.360;2023-04-20T11:08:35;95446.44;;;16.01;92.47
29169;BME280;16219;42.864;23.360;2023-04-20T11:11:03;95450.44;;;16.11;92.39
29169;BME280;16219;42.864;23.360;2023-04-20T11:13:33;95450.00;;;16.09;96.33
29169;BME280;16219;42.864;23.360;2023-04-20T11:16:09;95444.63;;;16.05;96.35
29169;BME280;16219;42.864;23.360;2023-04-20T11:18:37;95440.44;;;16.04;97.99
29169;BME280;16219;42.864;23.360;2023-04-20T11:21:12;95438.66;;;16.12;100.00
29169;BME280;16219;42.864;23.360;2023-04-20T11:23:39;95434.78;;;16.06;100.00
29169;BME280;16219;42.864;23.360;2023-04-20T11:26:08;95437.97;;;16.15;98.84
29169;BME280;16219;42.864;23.360;2023-04-20T11:28:36;95437.25;;;16.18;100.00
29169;BME280;16219;42.864;23.360;2023-04-20T11:31:04;95438.38;;;15.94;100.00
29169;BME280;16219;42.864;23.360;2023-04-20T11:33:31;95436.91;;;15.77;93.88
29169;BME280;16219;42.864;23.360;2023-04-20T11:35:59;95435.72;;;15.74;83.50
29169;BME280;16219;42.864;23.360;2023-04-20T11:38:28;95412.84;;;15.70;84.97
29169;BME280;16219;42.864;23.360;2023-04-20T11:40:56;95427.44;;;15.99;91.49
29169;BME280;16219;42.864;23.360;2023-04-20T11:43:29;95433.16;;;15.62;92.16
29169;BME280;16219;42.864;23.360;2023-04-20T11:45:58;95432.31;;;15.19;93.56
29169;BME280;16219;42.864;23.360;2023-04-20T11:48:29;95438.72;;;14.99;96.85
29169;BME280;16219;42.864;23.360;2023-04-20T11:51:16;95443.25;;;14.98;100.00
29169;BME280;16219;42.864;23.360;2023-04-20T11:53:43;95437.75;;;14.56;100.00
29169;BME280;16219;42.864;23.360;2023-04-20T11:56:10;95443.56;;;14.30;100.00
29169;BME280;16219;42.864;23.360;2023-04-20T11:58:38;95446.13;;;14.11;100.00
29169;BME280;16219;42.864;23.360;2023-04-20T12:01:06;95447.53;;;13.92;100.00
29169;BME280;16219;42.864;23.360;2023-04-20T12:03:34;95446.75;;;13.92;100.00
29169;BME280;16219;42.864;23.360;2023-04-20T12:06:01;95444.72;;;14.01;100.00
29169;BME280;16219;42.864;23.360;2023-04-20T12:08:28;95460.47;;;13.94;100.00
29169;BME280;16219;42.864;23.360;2023-04-20T12:10:56;95455.22;;;13.82;100.00
29169;BME280;16219;42.864;23.360;2023-04-20T12:13:23;95454.34;;;13.78;100.00
29169;BME280;16219;42.864;23.360;2023-04-20T12:15:50;95448.22;;;13.89;100.00
29169;BME280;16219;42.864;23.360;2023-04-20T12:18:19;95452.59;;;13.97;100.00
29169;BME280;16219;42.864;23.360;2023-04-20T12:20:46;95455.63;;;14.12;100.00
29169;BME280;16219;42.864;23.360;2023-04-20T12:23:15;95441.66;;;14.31;100.00
29169;BME280;16219;42.864;23.360;2023-04-20T12:25:42;95439.19;;;14.69;100.00
29169;BME280;16219;42.864;23.360;2023-04-20T12:28:09;95447.97;;;15.05;100.00
29169;BME280;16219;42.864;23.360;2023-04-20T12:30:36;95445.72;;;15.42;100.00
29169;BME280;16219;42.864;23.360;2023-04-20T12:33:03;95446.13;;;15.44;100.00
29169;BME280;16219;42.864;23.360;2023-04-20T12:35:32;95437.22;;;15.37;100.00
29169;BME280;16219;42.864;23.360;2023-04-20T12:37:59;95444.09;;;15.03;100.00
29169;BME280;16219;42.864;23.360;2023-04-20T12:40:26;95439.06;;;14.97;100.00
29169;BME280;16219;42.864;23.360;2023-04-20T12:42:53;95423.53;;;14.64;100.00
29169;BME280;16219;42.864;23.360;2023-04-20T12:45:21;95437.75;;;14.72;100.00
29169;BME280;16219;42.864;23.360;2023-04-20T12:47:48;95429.44;;;14.42;100.00
29169;BME280;16219;42.864;23.360;2023-04-20T12:50:16;95442.78;;;14.45;100.00
29169;BME280;16219;42.864;23.360;2023-04-20T12:52:44;95434.31;;;14.40;100.00